Time;durP1;ratioP1;P1;durP2;ratioP2;P2;SDS_P1;SDS_P2;PMS_P1;PMS_P2;Temp;Humidity;BMP_temperature;BMP_pressure;BME280_temperature;BME280_humidity;BME280_pressure;Samples;Min_cycle;Max_cycle;Signal;HPM_P1;HPM_P2
2021/05/05 00:01:50;;;;;;;5.33;2.80;;;;;;;17.68;42.31;94777.03;5070943;28;20460;-65
2021/05/05 00:04:16;;;;;;;3.73;2.57;;;;;;;17.60;43.24;94767.94;5070968;28;20453;-65
2021/05/05 00:06:43;;;;;;;5.57;3.00;;;;;;;17.62;43.30;94767.63;5072024;28;20485;-65
2021/05/05 00:09:09;;;;;;;5.00;3.10;;;;;;;17.59;43.08;94768.22;5070755;28;20461;-65
2021/05/05 00:11:36;;;;;;;5.53;3.43;;;;;;;17.59;43.13;94766.34;5070760;28;20434;-67
2021/05/05 00:14:03;;;;;;;5.23;3.23;;;;;;;16.91;43.60;94755.97;5070096;28;20459;-65
2021/05/05 00:16:32;;;;;;;5.00;2.80;;;;;;;17.25;43.83;94768.72;5070631;28;20452;-63
2021/05/05 00:18:58;;;;;;;6.23;3.57;;;;;;;17.41;43.17;94766.53;5070629;28;20445;-67
2021/05/05 00:21:25;;;;;;;4.73;3.20;;;;;;;17.45;43.17;94767.47;5071600;28;20438;-65
2021/05/05 00:23:55;;;;;;;6.33;3.10;;;;;;;17.42;42.86;94758.25;5070943;28;20453;-67
2021/05/05 00:26:23;;;;;;;4.67;2.70;;;;;;;17.42;43.10;94762.78;5071667;28;20528;-66
2021/05/05 00:28:49;;;;;;;3.47;2.80;;;;;;;17.16;42.96;94757.28;5071968;28;20496;-64
2021/05/05 00:31:17;;;;;;;7.07;2.83;;;;;;;17.26;43.07;94756.28;5070987;28;21031;-64
2021/05/05 00:33:44;;;;;;;4.13;2.80;;;;;;;17.37;42.86;94749.66;5070260;28;20442;-64
2021/05/05 00:36:11;;;;;;;4.77;2.70;;;;;;;17.39;43.16;94747.50;5070594;28;20536;-65
2021/05/05 00:38:38;;;;;;;5.80;3.00;;;;;;;17.47;43.23;94744.09;5069951;28;20442;-65
2021/05/05 00:41:09;;;;;;;5.87;2.90;;;;;;;17.46;42.92;94742.56;5070017;28;20495;-65
2021/05/05 00:43:37;;;;;;;8.10;2.90;;;;;;;17.46;43.47;94747.84;5070196;28;20536;-65
2021/05/05 00:46:03;;;;;;;4.47;3.00;;;;;;;17.40;43.81;94743.75;5069567;28;20478;-65
2021/05/05 00:48:31;;;;;;;4.03;2.30;;;;;;;17.27;43.55;94739.28;5069883;28;20446;-66
2021/05/05 00:51:00;;;;;;;3.80;2.83;;;;;;;17.28;43.25;94730.28;5052454;28;20837;-65
2021/05/05 00:53:27;;;;;;;4.93;2.60;;;;;;;17.40;43.59;94733.16;5070544;28;20525;-63
2021/05/05 00:55:54;;;;;;;4.03;2.80;;;;;;;17.47;43.30;94733.50;5069995;28;20438;-66
2021/05/05 00:58:21;;;;;;;6.77;3.00;;;;;;;17.41;43.37;94734.72;5069351;28;20446;-65
2021/05/05 01:00:50;;;;;;;4.60;3.30;;;;;;;17.54;43.56;94728.59;5052070;28;20499;-66
2021/05/05 01:03:19;;;;;;;6.43;3.03;;;;;;;17.06;43.99;94717.81;5051465;28;20438;-64
2021/05/05 01:05:47;;;;;;;6.57;2.80;;;;;;;17.30;44.44;94717.50;5069849;28;20516;-65
2021/05/05 01:08:16;;;;;;;7.30;3.00;;;;;;;17.45;44.55;94714.47;5069722;28;20492;-64
2021/05/05 01:10:44;;;;;;;5.60;3.07;;;;;;;17.52;43.82;94714.88;5070019;28;20476;-64
2021/05/05 01:13:12;;;;;;;7.17;3.33;;;;;;;17.44;44.67;94719.00;5069442;28;20434;-65
2021/05/05 01:15:40;;;;;;;3.93;3.10;;;;;;;17.11;45.24;94715.81;5070278;28;20470;-65
2021/05/05 01:18:06;;;;;;;6.27;3.20;;;;;;;17.33;45.40;94714.25;5069181;28;20477;-64
2021/05/05 01:20:33;;;;;;;4.73;3.00;;;;;;;17.42;44.38;94709.78;5051739;28;20813;-65
2021/05/05 01:22:59;;;;;;;5.80;3.07;;;;;;;17.52;45.21;94709.56;5051154;28;20503;-65
2021/05/05 01:25:26;;;;;;;6.63;2.90;;;;;;;17.64;44.76;94699.22;5069150;28;20511;-65
2021/05/05 01:27:53;;;;;;;6.90;2.90;;;;;;;17.64;44.78;94712.47;5069681;28;20515;-65
2021/05/05 01:30:21;;;;;;;4.17;2.97;;;;;;;17.70;44.21;94698.75;5070586;28;20845;-64
2021/05/05 01:32:49;;;;;;;4.37;3.17;;;;;;;17.61;44.99;94691.88;5070099;28;20449;-65
2021/05/05 01:35:17;;;;;;;4.70;3.37;;;;;;;17.53;45.38;94696.03;5070262;28;20582;-65
2021/05/05 01:37:44;;;;;;;5.80;3.40;;;;;;;17.55;45.46;94687.78;5051100;28;20442;-65
2021/05/05 01:40:28;;;;;;;5.07;3.23;;;;;;;17.53;45.30;94697.91;5069676;28;20585;-65
2021/05/05 01:42:54;;;;;;;8.70;3.57;;;;;;;17.41;45.55;94695.00;5069197;28;20504;-66
2021/05/05 01:45:22;;;;;;;6.07;3.40;;;;;;;17.22;45.93;94695.19;5051130;28;20540;-65
2021/05/05 01:48:00;;;;;;;3.83;2.90;;;;;;;17.28;45.55;94695.84;5069209;28;20460;-66
2021/05/05 01:50:29;;;;;;;5.03;3.17;;;;;;;17.26;45.44;94690.84;5051565;28;20449;-65
2021/05/05 01:52:55;;;;;;;5.93;3.50;;;;;;;17.31;45.81;94684.63;5068736;28;20446;-65
2021/05/05 01:55:23;;;;;;;4.43;3.43;;;;;;;17.20;46.16;94687.53;5051405;28;20473;-65
2021/05/05 01:57:49;;;;;;;6.27;3.23;;;;;;;17.23;45.90;94694.88;5069175;28;20823;-65
2021/05/05 02:00:27;;;;;;;5.73;3.70;;;;;;;17.09;46.23;94696.81;5072727;28;20434;-65
2021/05/05 02:03:04;;;;;;;4.90;3.50;;;;;;;17.17;46.03;94690.78;5072467;28;20461;-65
2021/05/05 02:05:38;;;;;;;9.17;3.90;;;;;;;17.30;46.59;94691.03;5055207;28;21001;-65
2021/05/05 02:08:26;;;;;;;4.73;3.30;;;;;;;17.29;46.54;94684.16;5054308;28;20449;-66
2021/05/05 02:10:52;;;;;;;5.10;3.70;;;;;;;17.10;47.14;94698.34;5055067;28;20437;-65
2021/05/05 02:13:19;;;;;;;6.50;4.07;;;;;;;17.03;46.76;94686.63;5054624;28;20802;-65
2021/05/05 02:15:46;;;;;;;6.17;3.60;;;;;;;17.00;46.65;94692.53;5072920;28;20445;-65
2021/05/05 02:18:15;;;;;;;6.27;4.03;;;;;;;17.09;46.97;94686.22;5072513;28;20461;-67
2021/05/05 02:20:43;;;;;;;7.83;4.57;;;;;;;17.09;47.58;94670.34;5055046;28;20834;-67
2021/05/05 02:23:10;;;;;;;11.50;4.57;;;;;;;17.01;47.78;94676.34;5072056;28;20448;-66
2021/05/05 02:25:38;;;;;;;5.27;4.00;;;;;;;16.79;48.38;94665.72;5073579;28;20477;-66
2021/05/05 02:28:09;;;;;;;17.13;4.80;;;;;;;16.83;48.39;94672.00;5072849;28;20902;-64
2021/05/05 02:31:02;;;;;;;9.17;5.00;;;;;;;16.35;49.33;94681.47;5071511;28;20556;-65
2021/05/05 02:33:30;;;;;;;9.23;4.50;;;;;;;16.59;49.07;94666.19;5053938;28;20456;-65
2021/05/05 02:35:57;;;;;;;6.30;4.63;;;;;;;16.40;49.05;94696.47;5054680;28;20445;-66
2021/05/05 02:38:23;;;;;;;5.27;4.57;;;;;;;16.54;49.15;94663.66;5054498;28;20474;-65
2021/05/05 02:40:50;;;;;;;5.80;4.80;;;;;;;16.62;49.07;94670.88;5054791;28;20934;-66
2021/05/05 02:43:20;;;;;;;9.40;5.00;;;;;;;16.61;50.12;94658.72;5072183;28;20829;-64
2021/05/05 02:45:46;;;;;;;8.43;5.33;;;;;;;16.69;49.67;94675.75;5072223;28;20466;-64
2021/05/05 02:48:13;;;;;;;6.40;4.70;;;;;;;16.51;49.27;94669.53;5053792;28;20987;-66
2021/05/05 02:50:40;;;;;;;7.50;5.03;;;;;;;16.66;48.66;94677.13;5072276;28;20475;-64
2021/05/05 02:53:06;;;;;;;10.70;5.33;;;;;;;16.77;49.09;94672.41;5072138;28;20438;-64
2021/05/05 02:55:33;;;;;;;8.53;4.87;;;;;;;16.65;49.60;94678.22;5073087;28;20545;-66
2021/05/05 02:57:59;;;;;;;7.77;4.70;;;;;;;16.75;49.64;94691.22;5053926;28;20894;-65
2021/05/05 03:00:26;;;;;;;9.20;5.10;;;;;;;16.59;49.58;94665.38;5072097;28;20541;-65
2021/05/05 03:02:52;;;;;;;9.50;5.30;;;;;;;16.42;50.80;94638.75;5071979;28;20442;-64
2021/05/05 03:05:19;;;;;;;5.17;4.67;;;;;;;16.11;51.53;94665.81;5072065;28;20492;-65
2021/05/05 03:07:45;;;;;;;10.23;5.90;;;;;;;16.22;51.65;94675.13;5072366;28;20491;-65
2021/05/05 03:10:13;;;;;;;10.30;5.33;;;;;;;16.31;50.69;94675.22;5071577;28;20465;-66
2021/05/05 03:12:39;;;;;;;10.07;5.50;;;;;;;16.22;51.55;94658.50;5071909;28;20442;-66
2021/05/05 03:15:07;;;;;;;9.60;6.10;;;;;;;16.37;50.59;94687.25;5072070;28;20434;-65
2021/05/05 03:17:34;;;;;;;9.83;6.10;;;;;;;16.31;50.78;94669.94;5071632;28;20440;-65
2021/05/05 03:20:00;;;;;;;9.80;5.27;;;;;;;16.40;50.92;94670.81;5053564;28;20532;-65
2021/05/05 03:22:27;;;;;;;5.43;4.90;;;;;;;16.43;51.19;94664.91;5071258;28;20537;-64
2021/05/05 03:24:54;;;;;;;10.57;6.07;;;;;;;16.43;50.48;94672.84;5071517;28;20430;-65
2021/05/05 03:27:21;;;;;;;9.37;6.30;;;;;;;16.42;51.02;94678.44;5071278;28;20616;-66
2021/05/05 03:29:47;;;;;;;6.47;5.70;;;;;;;16.52;50.70;94670.31;5071571;28;20962;-65
2021/05/05 03:32:13;;;;;;;13.13;5.90;;;;;;;16.20;52.29;94664.06;5071052;28;20528;-65
2021/05/05 03:34:40;;;;;;;9.23;5.60;;;;;;;16.03;52.09;94655.16;5071702;28;20457;-65
2021/05/05 03:37:06;;;;;;;11.87;5.40;;;;;;;16.19;52.78;94669.63;5071243;28;20446;-65
2021/05/05 03:39:33;;;;;;;7.70;5.43;;;;;;;16.15;52.95;94676.59;5071248;28;20449;-66
2021/05/05 03:41:59;;;;;;;10.03;5.37;;;;;;;15.87;53.62;94680.31;5071096;28;20442;-64
2021/05/05 03:44:26;;;;;;;8.70;5.20;;;;;;;16.18;53.02;94681.31;5071159;28;20484;-66
2021/05/05 03:46:52;;;;;;;8.17;5.57;;;;;;;16.04;52.98;94680.50;5071294;28;20485;-64
2021/05/05 03:49:19;;;;;;;8.43;5.83;;;;;;;15.92;53.51;94672.28;5071125;28;20507;-64
2021/05/05 03:51:46;;;;;;;8.37;5.60;;;;;;;16.06;52.83;94678.34;5070848;28;20423;-65
2021/05/05 03:54:12;;;;;;;10.23;6.13;;;;;;;16.18;53.22;94681.31;5070618;28;20446;-64
2021/05/05 03:56:38;;;;;;;8.10;5.87;;;;;;;16.17;53.23;94680.50;5071523;28;20504;-65
2021/05/05 03:59:05;;;;;;;11.70;6.70;;;;;;;15.86;54.23;94684.03;5070724;28;20446;-66
2021/05/05 04:01:31;;;;;;;8.70;6.20;;;;;;;15.78;54.48;94684.72;5071369;28;20867;-67
2021/05/05 04:03:58;;;;;;;8.63;7.13;;;;;;;15.84;54.50;94686.16;5067781;28;20438;-65
2021/05/05 04:06:24;;;;;;;12.00;6.90;;;;;;;15.84;54.48;94694.09;5067598;28;20506;-65
2021/05/05 04:08:50;;;;;;;14.70;7.60;;;;;;;15.96;53.83;94699.69;5069867;28;20485;-63
2021/05/05 04:11:17;;;;;;;10.67;6.70;;;;;;;15.73;55.39;94703.31;5071006;28;20442;-64
2021/05/05 04:13:46;;;;;;;12.70;7.17;;;;;;;15.83;55.24;94689.91;5069857;28;20829;-64
2021/05/05 04:16:31;;;;;;;20.20;7.70;;;;;;;15.85;55.18;94693.84;5070853;28;20437;-63
2021/05/05 04:19:16;;;;;;;11.50;7.27;;;;;;;15.98;54.61;94697.56;5071243;28;20452;-64
2021/05/05 04:22:02;;;;;;;12.47;7.70;;;;;;;16.07;54.27;94679.94;5070222;28;20458;-65
2021/05/05 04:24:46;;;;;;;14.67;7.93;;;;;;;16.18;55.06;94687.34;5070101;28;20463;-65
2021/05/05 04:27:14;;;;;;;12.17;7.87;;;;;;;16.11;55.08;94686.97;5067483;28;20826;-64
2021/05/05 04:29:42;;;;;;;12.47;7.93;;;;;;;16.15;55.04;94676.59;5069978;28;20465;-65
2021/05/05 04:32:09;;;;;;;11.27;8.57;;;;;;;16.11;54.74;94692.25;5069303;28;20572;-65
2021/05/05 04:34:36;;;;;;;12.93;8.70;;;;;;;16.14;55.08;94690.88;5068960;28;20442;-64
2021/05/05 04:37:03;;;;;;;14.57;8.87;;;;;;;16.22;54.52;94700.78;5069072;28;20450;-63
2021/05/05 04:39:30;;;;;;;15.43;9.30;;;;;;;16.26;54.86;94700.97;5069500;28;20446;-63
2021/05/05 04:41:56;;;;;;;14.53;9.47;;;;;;;16.22;54.62;94708.72;5069744;28;20446;-71
2021/05/05 04:44:22;;;;;;;13.63;9.87;;;;;;;16.18;55.24;94702.44;5065991;28;21025;-71
2021/05/05 04:46:49;;;;;;;13.50;10.20;;;;;;;16.16;55.44;94699.31;5067114;28;20488;-69
2021/05/05 04:49:16;;;;;;;324.23;276.13;;;;;;;16.31;56.38;94699.03;5068384;28;20888;-71
2021/05/05 04:51:42;;;;;;;178.13;146.00;;;;;;;16.39;55.67;94693.03;5069994;28;20442;-69
2021/05/05 04:54:09;;;;;;;124.27;110.57;;;;;;;16.58;54.67;94700.88;5069590;28;20452;-69
2021/05/05 04:56:36;;;;;;;21.93;14.90;;;;;;;16.36;54.83;94698.13;5051769;28;20442;-67
2021/05/05 04:59:03;;;;;;;21.63;13.87;;;;;;;16.47;55.15;94707.41;5069097;28;20472;-71
2021/05/05 05:01:30;;;;;;;18.33;14.30;;;;;;;16.53;54.44;94714.97;5069696;28;20631;-67
2021/05/05 05:03:57;;;;;;;19.43;15.37;;;;;;;16.54;54.22;94705.19;5068255;28;20461;-70
2021/05/05 05:06:23;;;;;;;20.03;15.47;;;;;;;16.26;54.83;94698.34;5069054;28;20489;-70
2021/05/05 05:08:50;;;;;;;18.50;16.50;;;;;;;16.58;55.93;94704.31;5068157;28;20500;-72
2021/05/05 05:11:17;;;;;;;26.93;15.83;;;;;;;16.71;54.36;94700.84;5069230;28;20513;-72
2021/05/05 05:13:43;;;;;;;21.90;19.13;;;;;;;16.85;53.35;94701.59;5068745;28;20450;-71
2021/05/05 05:16:10;;;;;;;37.37;29.90;;;;;;;16.73;53.92;94701.31;5068337;28;21203;-69
2021/05/05 05:18:36;;;;;;;17.90;15.80;;;;;;;16.85;54.75;94704.22;5068651;28;20434;-71
2021/05/05 05:21:04;;;;;;;21.23;16.17;;;;;;;17.04;53.88;94709.38;5069136;28;20441;-70
2021/05/05 05:23:32;;;;;;;24.07;16.80;;;;;;;16.65;53.81;94711.81;5068928;28;20460;-64
2021/05/05 05:25:58;;;;;;;18.57;15.40;;;;;;;16.90;53.58;94704.13;5068904;28;20470;-69
2021/05/05 05:28:26;;;;;;;20.87;16.00;;;;;;;16.95;53.65;94698.69;5068761;28;20445;-68
2021/05/05 05:30:52;;;;;;;23.27;15.13;;;;;;;16.82;54.28;94683.66;5067587;28;20810;-66
2021/05/05 05:33:19;;;;;;;19.17;14.23;;;;;;;16.85;53.63;94698.94;5068169;28;20461;-67
2021/05/05 05:35:46;;;;;;;20.00;13.43;;;;;;;16.77;53.95;94710.22;5071044;28;20494;-66
2021/05/05 05:38:13;;;;;;;17.23;13.33;;;;;;;16.78;54.88;94713.66;5071069;28;20441;-68
2021/05/05 05:40:40;;;;;;;347.70;306.93;;;;;;;17.09;54.90;94710.03;5071981;28;20967;-67
2021/05/05 05:43:07;;;;;;;94.77;73.97;;;;;;;17.23;54.54;94713.41;5072743;28;20460;-69
2021/05/05 05:45:34;;;;;;;17.27;15.20;;;;;;;17.26;53.82;94711.25;5077220;28;21006;-68
2021/05/05 05:48:00;;;;;;;14.50;11.07;;;;;;;17.07;53.37;94708.78;5072623;28;20434;-67
2021/05/05 05:50:27;;;;;;;17.63;9.40;;;;;;;17.17;52.58;94709.31;5073108;28;20857;-69
2021/05/05 05:52:53;;;;;;;13.63;9.60;;;;;;;17.12;53.44;94719.22;5072505;28;20468;-67
2021/05/05 05:55:21;;;;;;;15.80;12.47;;;;;;;17.14;52.82;94719.72;5072668;28;20426;-68
2021/05/05 05:57:49;;;;;;;14.50;8.33;;;;;;;16.78;54.26;94725.03;5072628;28;20982;-68
2021/05/05 06:00:17;;;;;;;26.57;18.10;;;;;;;16.92;54.04;94736.38;5072913;28;20511;-70
2021/05/05 06:02:44;;;;;;;10.10;7.60;;;;;;;16.69;54.96;94734.75;5071808;28;20433;-68
2021/05/05 06:05:11;;;;;;;14.00;9.40;;;;;;;16.78;54.76;94737.47;5072613;28;20453;-69
2021/05/05 06:07:38;;;;;;;14.47;8.83;;;;;;;16.73;55.45;94746.28;5072365;28;20530;-69
2021/05/05 06:10:07;;;;;;;14.77;8.07;;;;;;;16.77;56.02;94747.25;5072503;28;20557;-68
2021/05/05 06:12:33;;;;;;;14.53;9.00;;;;;;;17.02;53.81;94744.06;5073033;28;20500;-65
2021/05/05 06:14:59;;;;;;;13.00;7.93;;;;;;;17.14;53.52;94738.25;5073888;28;20739;-67
2021/05/05 06:17:26;;;;;;;9.23;7.27;;;;;;;17.28;52.88;94724.97;5072791;28;20499;-66
2021/05/05 06:19:53;;;;;;;9.83;6.87;;;;;;;17.27;52.54;94726.03;5074091;28;20445;-67
2021/05/05 06:22:20;;;;;;;7.03;6.33;;;;;;;17.26;53.20;94716.53;5074187;28;20444;-68
2021/05/05 06:24:46;;;;;;;11.67;7.20;;;;;;;17.40;53.10;94718.06;5072839;28;21050;-69
2021/05/05 06:27:13;;;;;;;8.03;6.93;;;;;;;17.48;52.00;94713.94;5072137;28;20492;-68
2021/05/05 06:29:39;;;;;;;11.23;6.90;;;;;;;17.07;54.12;94722.78;5072660;28;20440;-68
2021/05/05 06:32:06;;;;;;;11.23;7.27;;;;;;;17.05;54.02;94717.00;5072640;28;20438;-66
2021/05/05 06:34:33;;;;;;;7.90;7.10;;;;;;;17.18;53.70;94721.47;5072730;28;20876;-67
2021/05/05 06:37:00;;;;;;;21.47;6.53;;;;;;;17.27;53.92;94720.75;5072155;28;20450;-67
2021/05/05 06:39:27;;;;;;;13.27;6.40;;;;;;;16.97;54.08;94715.06;5072416;28;20430;-66
2021/05/05 06:41:53;;;;;;;13.60;7.43;;;;;;;17.29;53.17;94714.06;5053983;28;20445;-68
2021/05/05 06:44:20;;;;;;;11.37;6.50;;;;;;;17.62;52.09;94706.69;5072304;28;20438;-66
2021/05/05 06:46:48;;;;;;;15.07;6.93;;;;;;;18.00;51.34;94703.28;5073185;28;20529;-68
2021/05/05 06:49:15;;;;;;;10.73;6.27;;;;;;;17.69;52.27;94707.03;5073085;28;20532;-66
2021/05/05 06:51:42;;;;;;;12.47;6.33;;;;;;;17.79;51.73;94698.84;5055362;28;20862;-67
2021/05/05 06:54:08;;;;;;;6.73;5.37;;;;;;;17.83;52.80;94700.56;5072997;28;20521;-69
2021/05/05 06:56:35;;;;;;;12.03;5.77;;;;;;;17.25;51.81;94678.69;5073207;28;20792;-69
2021/05/05 06:59:02;;;;;;;10.90;6.33;;;;;;;17.95;51.02;94692.03;5071984;28;21046;-68
2021/05/05 07:01:28;;;;;;;13.80;6.27;;;;;;;17.87;51.08;94680.31;5071647;28;20826;-69
2021/05/05 07:03:55;;;;;;;10.43;5.93;;;;;;;18.01;51.59;94685.53;5071401;28;20426;-67
2021/05/05 07:06:22;;;;;;;12.17;6.30;;;;;;;17.73;51.69;94681.50;5071547;28;21091;-64
2021/05/05 07:08:48;;;;;;;12.20;6.10;;;;;;;17.99;51.20;94677.09;5067045;28;20488;-67
2021/05/05 07:11:16;;;;;;;15.93;6.17;;;;;;;18.33;50.59;94671.88;5072951;28;20499;-68
2021/05/05 07:13:42;;;;;;;12.47;6.97;;;;;;;18.36;50.03;94671.25;5069487;28;20794;-67
2021/05/05 07:16:11;;;;;;;14.97;6.10;;;;;;;18.52;49.89;94669.75;5052235;28;20499;-68
2021/05/05 07:18:38;;;;;;;7.57;5.37;;;;;;;18.54;49.83;94656.19;5068367;28;20438;-67
2021/05/05 07:21:05;;;;;;;12.57;6.83;;;;;;;18.51;49.34;94662.09;5069924;28;20485;-66
2021/05/05 07:23:31;;;;;;;13.67;6.57;;;;;;;18.65;49.27;94663.53;5069559;28;20427;-68
2021/05/05 07:25:58;;;;;;;13.67;6.80;;;;;;;18.62;47.85;94668.69;5067240;28;20473;-70
2021/05/05 07:28:24;;;;;;;12.83;6.40;;;;;;;18.84;49.01;94672.00;5069220;28;20441;-69
2021/05/05 07:30:51;;;;;;;11.40;5.90;;;;;;;18.65;48.93;94679.47;5070751;28;20442;-69
2021/05/05 07:33:17;;;;;;;8.47;6.20;;;;;;;18.62;49.57;94682.75;5070388;28;20453;-69
2021/05/05 07:35:51;;;;;;;11.07;6.13;;;;;;;19.03;48.60;94675.09;5070867;28;20468;-67
2021/05/05 07:39:08;;;;;;;8.73;6.20;;;;;;;19.16;48.18;94674.16;5070730;28;21032;-67
2021/05/05 07:41:57;;;;;;;10.60;5.40;;;;;;;19.15;47.06;94651.38;5065158;28;20808;-68
2021/05/05 07:49:37;;;;;;;6.43;5.80;;;;;;;19.19;47.79;94657.63;5071342;28;20465;-69
2021/05/05 07:52:03;;;;;;;17.67;7.10;;;;;;;19.38;47.56;94653.88;5070506;28;20210;-68
2021/05/05 07:54:29;;;;;;;13.77;6.63;;;;;;;19.58;47.61;94658.50;5069353;28;20591;-67
2021/05/05 07:56:54;;;;;;;10.20;5.83;;;;;;;19.74;46.85;94654.25;5068550;28;20184;-68
2021/05/05 07:59:20;;;;;;;9.07;6.30;;;;;;;19.62;48.23;94643.47;5068662;28;20249;-67
2021/05/05 08:01:47;;;;;;;13.73;6.17;;;;;;;19.60;48.00;94657.06;5069250;28;20224;-68
2021/05/05 08:04:14;;;;;;;10.13;5.70;;;;;;;19.78;48.12;94655.16;5069678;28;20565;-67
2021/05/05 08:06:40;;;;;;;8.57;5.60;;;;;;;19.80;46.37;94647.63;5069634;28;20473;-68
2021/05/05 08:09:07;;;;;;;11.67;5.57;;;;;;;19.66;47.90;94655.03;5069535;28;21003;-68
2021/05/05 08:11:33;;;;;;;9.63;5.30;;;;;;;19.73;47.01;94650.78;5070892;28;20428;-67
2021/05/05 08:14:00;;;;;;;7.90;5.47;;;;;;;20.14;46.58;94644.84;5070398;28;20207;-69
2021/05/05 08:16:26;;;;;;;11.83;6.03;;;;;;;20.12;46.72;94650.50;5070604;28;20191;-68
2021/05/05 08:18:53;;;;;;;6.23;5.23;;;;;;;20.07;46.18;94649.88;5070344;28;20678;-69
2021/05/05 08:21:20;;;;;;;10.20;5.60;;;;;;;20.41;44.73;94641.75;5070881;28;20819;-68
2021/05/05 08:23:47;;;;;;;9.97;4.90;;;;;;;20.46;44.86;94641.56;5070277;28;20204;-68
2021/05/05 08:26:13;;;;;;;10.47;4.87;;;;;;;20.41;45.17;94632.97;5070030;28;20223;-68
2021/05/05 08:28:40;;;;;;;8.53;5.30;;;;;;;20.83;43.68;94624.69;5070322;28;20585;-69
2021/05/05 08:31:12;;;;;;;10.07;5.23;;;;;;;20.79;43.65;94617.66;5070910;28;20578;-68
2021/05/05 08:33:38;;;;;;;9.03;4.90;;;;;;;20.86;43.17;94623.25;5070088;28;20216;-67
2021/05/05 08:36:05;;;;;;;9.77;5.50;;;;;;;20.90;44.60;94619.63;5056229;28;20192;-68
2021/05/05 08:38:32;;;;;;;8.50;5.33;;;;;;;21.21;43.55;94608.56;5070134;28;20563;-67
2021/05/05 08:40:58;;;;;;;7.13;4.97;;;;;;;21.19;42.93;94605.44;5070580;28;20607;-67
2021/05/05 08:43:25;;;;;;;9.07;4.63;;;;;;;21.33;42.01;94599.81;5069477;28;20199;-66
2021/05/05 08:45:57;;;;;;;7.00;4.70;;;;;;;21.78;41.25;94616.56;5070188;28;20198;-67
2021/05/05 08:48:23;;;;;;;9.97;5.00;;;;;;;21.52;43.13;94602.75;5070197;28;20285;-68
2021/05/05 08:50:50;;;;;;;6.67;4.90;;;;;;;21.13;42.53;94607.53;5070256;28;20196;-69
2021/05/05 08:53:17;;;;;;;7.80;4.53;;;;;;;20.90;41.87;94603.63;5069876;28;20204;-69
2021/05/05 08:55:43;;;;;;;10.70;5.07;;;;;;;20.91;41.38;94613.19;5052592;28;20247;-69
2021/05/05 08:58:10;;;;;;;7.50;4.33;;;;;;;20.91;40.92;94613.19;5069594;28;20195;-68
2021/05/05 09:00:37;;;;;;;8.57;5.10;;;;;;;20.73;42.20;94614.41;5070157;28;20291;-68
2021/05/05 09:03:06;;;;;;;8.63;4.73;;;;;;;21.01;41.77;94615.47;5069772;28;20202;-68
2021/05/05 09:05:50;;;;;;;11.57;5.50;;;;;;;21.06;41.29;94593.97;5070018;28;20198;-68
2021/05/05 09:08:17;;;;;;;15.37;5.50;;;;;;;21.06;41.71;94601.94;5068676;28;20257;-68
2021/05/05 09:11:13;;;;;;;8.90;5.00;;;;;;;21.06;41.15;94607.28;5069749;28;20702;-68
2021/05/05 09:13:54;;;;;;;8.37;5.43;;;;;;;21.29;41.74;94591.72;5068359;28;20222;-68
2021/05/05 09:16:31;;;;;;;13.83;4.60;;;;;;;22.08;39.70;94599.25;5070165;28;20249;-69
2021/05/05 09:19:10;;;;;;;9.73;4.23;;;;;;;22.25;38.35;94583.03;5069123;28;20199;-67
2021/05/05 09:21:41;;;;;;;10.67;4.07;;;;;;;22.28;38.00;94595.69;5069861;28;20234;-68
2021/05/05 09:24:26;;;;;;;13.47;4.63;;;;;;;22.04;39.27;94595.72;5069710;28;20199;-67
2021/05/05 09:26:56;;;;;;;4.80;3.90;;;;;;;21.59;39.83;94592.31;5069238;28;20204;-68
2021/05/05 09:29:45;;;;;;;6.63;4.33;;;;;;;21.51;40.65;94582.53;5069907;28;20196;-68
2021/05/05 09:32:14;;;;;;;6.57;4.40;;;;;;;21.65;39.58;94591.78;5069717;28;20188;-67
2021/05/05 09:34:42;;;;;;;7.80;4.90;;;;;;;21.59;39.94;94586.97;5069836;28;20192;-68
2021/05/05 09:37:11;;;;;;;10.07;4.53;;;;;;;21.58;40.27;94585.44;5069033;28;20218;-67
2021/05/05 09:39:40;;;;;;;10.87;4.87;;;;;;;21.20;41.43;94566.25;5069930;28;20205;-67
2021/05/05 09:42:31;;;;;;;10.40;4.63;;;;;;;21.14;40.75;94589.66;5069520;28;20214;-68
2021/05/05 09:44:58;;;;;;;6.43;4.63;;;;;;;21.02;40.51;94585.06;5060696;28;20215;-67
2021/05/05 09:47:48;;;;;;;6.93;4.60;;;;;;;21.04;41.85;94585.50;5068898;28;20219;-72
2021/05/05 09:50:26;;;;;;;9.43;4.63;;;;;;;21.04;40.86;94576.72;5070115;28;20311;-68
2021/05/05 09:53:11;;;;;;;5.33;4.50;;;;;;;20.74;40.73;94570.72;5068945;28;20231;-69
2021/05/05 09:55:38;;;;;;;7.03;4.80;;;;;;;21.12;41.22;94574.00;5069396;28;20555;-69
2021/05/05 09:58:24;;;;;;;6.07;4.60;;;;;;;20.93;43.05;94571.00;5069003;28;20282;-68
2021/05/05 10:01:06;;;;;;;9.97;5.00;;;;;;;20.81;43.15;94570.97;5071622;28;20674;-68
2021/05/05 10:03:47;;;;;;;8.43;4.43;;;;;;;20.72;42.65;94572.16;5069591;28;20184;-68
2021/05/05 10:06:32;;;;;;;11.03;4.27;;;;;;;20.82;42.32;94569.84;5069558;28;20231;-69
2021/05/05 10:09:04;;;;;;;9.40;4.40;;;;;;;20.90;42.24;94561.03;5068981;28;20266;-67
2021/05/05 10:11:33;;;;;;;16.60;5.47;;;;;;;20.88;42.31;94551.78;5069453;28;20290;-68
2021/05/05 10:14:10;;;;;;;7.33;4.57;;;;;;;21.02;41.96;94552.34;5050732;28;20655;-68
2021/05/05 10:16:40;;;;;;;9.40;6.20;;;;;;;21.17;41.94;94542.94;5069245;28;20211;-67
2021/05/05 10:19:19;;;;;;;10.10;5.20;;;;;;;21.02;42.56;94541.69;5068802;28;20172;-68
2021/05/05 10:21:58;;;;;;;8.20;4.77;;;;;;;20.90;42.74;94534.38;5072889;28;20195;-68
2021/05/05 10:24:26;;;;;;;7.60;5.10;;;;;;;20.86;42.45;94533.47;5054750;28;20203;-68
2021/05/05 10:26:53;;;;;;;8.17;4.30;;;;;;;20.90;42.01;94546.91;5072314;28;20250;-67
2021/05/05 10:29:20;;;;;;;6.17;4.73;;;;;;;21.14;41.95;94529.16;5073350;28;20255;-67
2021/05/05 10:31:52;;;;;;;10.07;4.77;;;;;;;21.22;41.60;94534.72;5073788;28;20195;-67
2021/05/05 10:34:25;;;;;;;8.83;4.13;;;;;;;21.31;41.12;94532.75;5072858;28;20187;-68
2021/05/05 10:36:55;;;;;;;11.87;5.07;;;;;;;21.29;41.58;94540.28;5072171;28;20700;-68
2021/05/05 10:39:22;;;;;;;6.50;4.40;;;;;;;21.56;40.87;94534.31;5072906;28;20196;-68
2021/05/05 10:42:04;;;;;;;6.50;5.30;;;;;;;21.59;40.26;94501.66;5072877;28;20230;-67
2021/05/05 10:44:35;;;;;;;10.83;5.17;;;;;;;21.92;39.35;94531.69;5072630;28;20195;-68
2021/05/05 10:47:10;;;;;;;6.93;4.40;;;;;;;22.23;39.73;94523.84;5072348;28;20236;-68
2021/05/05 10:49:58;;;;;;;6.73;4.07;;;;;;;22.07;40.00;94523.78;5072342;28;20215;-69
2021/05/05 10:52:45;;;;;;;5.83;4.73;;;;;;;22.69;39.21;94512.63;5072529;28;20194;-68
2021/05/05 10:55:15;;;;;;;10.87;4.60;;;;;;;23.04;40.04;94497.56;5058956;28;20208;-67
2021/05/05 10:58:12;;;;;;;9.97;4.50;;;;;;;23.21;38.88;94503.69;5071866;28;20198;-67
2021/05/05 11:00:56;;;;;;;5.50;4.30;;;;;;;23.54;37.36;94494.22;5072364;28;20202;-67
2021/05/05 11:03:47;;;;;;;7.40;4.70;;;;;;;23.16;35.55;94503.97;5071945;28;20566;-68
2021/05/05 11:06:46;;;;;;;10.27;3.87;;;;;;;23.54;35.56;94493.47;5072024;28;20219;-67
2021/05/05 11:09:13;;;;;;;8.63;4.23;;;;;;;23.69;37.15;94495.34;5038539;28;20232;-68
2021/05/05 11:11:48;;;;;;;7.83;4.23;;;;;;;23.57;35.44;94487.41;5072214;28;20228;-66
2021/05/05 11:14:23;;;;;;;10.90;4.00;;;;;;;23.81;35.08;94490.66;5071643;28;20213;-67
2021/05/05 11:16:59;;;;;;;7.67;4.10;;;;;;;23.71;34.67;94493.88;5071826;28;20222;-67
2021/05/05 11:19:35;;;;;;;9.07;3.90;;;;;;;23.85;34.81;94490.75;5071587;28;20657;-68
2021/05/05 11:22:09;;;;;;;7.60;3.40;;;;;;;23.60;34.44;94484.03;5071540;28;20237;-68
2021/05/05 11:24:38;;;;;;;5.43;3.30;;;;;;;23.74;34.23;94481.72;5073483;28;20192;-68
2021/05/05 11:27:08;;;;;;;5.57;3.67;;;;;;;23.63;33.79;94486.81;5071507;28;20220;-67
2021/05/05 11:29:36;;;;;;;9.97;4.00;;;;;;;23.37;35.48;94469.75;5071850;28;20210;-68
2021/05/05 11:32:12;;;;;;;5.07;3.00;;;;;;;23.17;33.99;94473.41;5070760;28;20203;-68
2021/05/05 11:34:41;;;;;;;12.83;3.63;;;;;;;23.45;34.59;94468.81;5071621;28;20203;-68
2021/05/05 11:37:24;;;;;;;5.67;3.40;;;;;;;23.59;33.73;94477.16;5071071;28;20700;-68
2021/05/05 11:40:02;;;;;;;6.37;3.40;;;;;;;22.82;35.21;94478.63;5071565;28;20199;-65
2021/05/05 11:42:34;;;;;;;6.90;3.30;;;;;;;22.94;33.27;94475.88;5066040;28;20202;-67
2021/05/05 11:45:12;;;;;;;6.57;3.57;;;;;;;23.17;33.18;94473.41;5051357;28;20211;-68
2021/05/05 11:47:43;;;;;;;4.40;3.00;;;;;;;23.23;33.83;94466.72;5051110;28;20262;-68